sensor_id;sensor_type;location;lat;lon;timestamp;P1;durP1;ratioP1;P2;durP2;ratioP2
73150;SDS011;61354;50.758;6.106;2024-01-30T00:00:42;6.00;;;3.30;;
73150;SDS011;61354;50.758;6.106;2024-01-30T00:03:26;6.53;;;3.58;;
73150;SDS011;61354;50.758;6.106;2024-01-30T00:06:11;5.53;;;2.97;;
73150;SDS011;61354;50.758;6.106;2024-01-30T00:08:55;7.07;;;3.75;;
73150;SDS011;61354;50.758;6.106;2024-01-30T00:11:39;5.47;;;3.40;;
73150;SDS011;61354;50.758;6.106;2024-01-30T00:14:23;6.22;;;3.30;;
73150;SDS011;61354;50.758;6.106;2024-01-30T00:17:07;5.93;;;3.75;;
73150;SDS011;61354;50.758;6.106;2024-01-30T00:19:51;6.95;;;3.53;;
73150;SDS011;61354;50.758;6.106;2024-01-30T00:22:35;6.88;;;3.55;;
73150;SDS011;61354;50.758;6.106;2024-01-30T00:25:19;6.70;;;3.05;;
73150;SDS011;61354;50.758;6.106;2024-01-30T00:28:03;5.45;;;3.28;;
73150;SDS011;61354;50.758;6.106;2024-01-30T00:30:47;7.30;;;3.53;;
73150;SDS011;61354;50.758;6.106;2024-01-30T00:33:31;6.47;;;3.08;;
73150;SDS011;61354;50.758;6.106;2024-01-30T00:36:15;5.55;;;3.00;;
73150;SDS011;61354;50.758;6.106;2024-01-30T00:38:59;6.90;;;3.13;;
73150;SDS011;61354;50.758;6.106;2024-01-30T00:41:43;5.43;;;3.05;;
73150;SDS011;61354;50.758;6.106;2024-01-30T00:44:27;5.82;;;2.80;;
73150;SDS011;61354;50.758;6.106;2024-01-30T00:47:11;4.53;;;2.65;;
73150;SDS011;61354;50.758;6.106;2024-01-30T00:49:55;5.05;;;3.13;;
73150;SDS011;61354;50.758;6.106;2024-01-30T00:52:39;6.72;;;3.13;;
73150;SDS011;61354;50.758;6.106;2024-01-30T00:55:25;6.10;;;2.80;;
73150;SDS011;61354;50.758;6.106;2024-01-30T00:58:09;6.72;;;3.13;;
73150;SDS011;61354;50.758;6.106;2024-01-30T01:00:52;5.53;;;2.90;;
73150;SDS011;61354;50.758;6.106;2024-01-30T01:03:36;6.25;;;3.20;;
73150;SDS011;61354;50.758;6.106;2024-01-30T01:06:20;6.93;;;3.38;;
73150;SDS011;61354;50.758;6.106;2024-01-30T01:09:04;5.30;;;3.00;;
73150;SDS011;61354;50.758;6.106;2024-01-30T01:11:48;6.45;;;3.42;;
73150;SDS011;61354;50.758;6.106;2024-01-30T01:14:32;6.15;;;3.33;;
73150;SDS011;61354;50.758;6.106;2024-01-30T01:17:16;6.18;;;3.40;;
73150;SDS011;61354;50.758;6.106;2024-01-30T01:20:02;6.30;;;3.22;;
73150;SDS011;61354;50.758;6.106;2024-01-30T01:22:47;5.38;;;3.30;;
73150;SDS011;61354;50.758;6.106;2024-01-30T01:25:30;6.53;;;2.90;;
73150;SDS011;61354;50.758;6.106;2024-01-30T01:28:14;5.72;;;2.85;;
73150;SDS011;61354;50.758;6.106;2024-01-30T01:30:59;5.43;;;2.70;;
73150;SDS011;61354;50.758;6.106;2024-01-30T01:33:48;6.97;;;3.20;;
73150;SDS011;61354;50.758;6.106;2024-01-30T01:36:32;4.43;;;2.72;;
73150;SDS011;61354;50.758;6.106;2024-01-30T01:39:16;5.35;;;3.25;;
73150;SDS011;61354;50.758;6.106;2024-01-30T01:42:01;5.28;;;3.20;;
73150;SDS011;61354;50.758;6.106;2024-01-30T01:44:45;6.20;;;3.33;;
73150;SDS011;61354;50.758;6.106;2024-01-30T01:47:29;5.25;;;2.83;;
73150;SDS011;61354;50.758;6.106;2024-01-30T01:50:15;4.50;;;2.63;;
73150;SDS011;61354;50.758;6.106;2024-01-30T01:53:02;6.38;;;3.00;;
73150;SDS011;61354;50.758;6.106;2024-01-30T01:55:47;4.95;;;2.83;;
73150;SDS011;61354;50.758;6.106;2024-01-30T01:58:31;8.75;;;3.47;;
73150;SDS011;61354;50.758;6.106;2024-01-30T02:01:16;7.00;;;3.42;;
73150;SDS011;61354;50.758;6.106;2024-01-30T02:04:03;5.28;;;3.03;;
73150;SDS011;61354;50.758;6.106;2024-01-30T02:06:48;4.97;;;2.92;;
73150;SDS011;61354;50.758;6.106;2024-01-30T02:09:33;4.70;;;2.70;;
73150;SDS011;61354;50.758;6.106;2024-01-30T02:12:17;5.53;;;3.20;;
73150;SDS011;61354;50.758;6.106;2024-01-30T02:15:01;5.78;;;3.05;;
73150;SDS011;61354;50.758;6.106;2024-01-30T02:17:45;5.90;;;2.65;;
73150;SDS011;61354;50.758;6.106;2024-01-30T02:20:30;4.85;;;2.75;;
73150;SDS011;61354;50.758;6.106;2024-01-30T02:23:15;4.65;;;2.78;;
73150;SDS011;61354;50.758;6.106;2024-01-30T02:26:00;6.28;;;2.80;;
73150;SDS011;61354;50.758;6.106;2024-01-30T02:28:44;4.78;;;2.70;;
73150;SDS011;61354;50.758;6.106;2024-01-30T02:31:28;4.40;;;2.55;;
73150;SDS011;61354;50.758;6.106;2024-01-30T02:34:13;4.43;;;2.80;;
73150;SDS011;61354;50.758;6.106;2024-01-30T02:36:57;4.85;;;2.78;;
73150;SDS011;61354;50.758;6.106;2024-01-30T02:39:41;5.05;;;2.88;;
73150;SDS011;61354;50.758;6.106;2024-01-30T02:42:25;5.05;;;2.65;;
73150;SDS011;61354;50.758;6.106;2024-01-30T02:45:10;5.65;;;2.85;;
73150;SDS011;61354;50.758;6.106;2024-01-30T02:47:54;5.28;;;2.85;;
73150;SDS011;61354;50.758;6.106;2024-01-30T02:50:38;4.25;;;2.53;;
73150;SDS011;61354;50.758;6.106;2024-01-30T02:53:22;5.80;;;2.28;;
73150;SDS011;61354;50.758;6.106;2024-01-30T02:56:06;4.90;;;2.67;;
73150;SDS011;61354;50.758;6.106;2024-01-30T02:58:53;5.95;;;2.85;;
73150;SDS011;61354;50.758;6.106;2024-01-30T03:01:43;5.00;;;3.10;;
73150;SDS011;61354;50.758;6.106;2024-01-30T03:04:28;5.03;;;2.60;;
73150;SDS011;61354;50.758;6.106;2024-01-30T03:07:13;5.90;;;2.70;;
73150;SDS011;61354;50.758;6.106;2024-01-30T03:09:58;6.82;;;2.63;;
73150;SDS011;61354;50.758;6.106;2024-01-30T03:12:42;6.22;;;2.50;;
73150;SDS011;61354;50.758;6.106;2024-01-30T03:15:26;6.38;;;2.80;;
73150;SDS011;61354;50.758;6.106;2024-01-30T03:18:10;4.60;;;2.60;;
73150;SDS011;61354;50.758;6.106;2024-01-30T03:20:54;4.70;;;2.67;;
73150;SDS011;61354;50.758;6.106;2024-01-30T03:23:38;4.95;;;2.13;;
73150;SDS011;61354;50.758;6.106;2024-01-30T03:26:22;5.93;;;2.95;;
73150;SDS011;61354;50.758;6.106;2024-01-30T03:29:06;7.20;;;3.03;;
73150;SDS011;61354;50.758;6.106;2024-01-30T03:31:49;5.63;;;2.70;;
73150;SDS011;61354;50.758;6.106;2024-01-30T03:34:33;5.40;;;2.70;;
73150;SDS011;61354;50.758;6.106;2024-01-30T03:37:17;5.38;;;3.05;;
73150;SDS011;61354;50.758;6.106;2024-01-30T03:40:02;5.72;;;2.90;;
73150;SDS011;61354;50.758;6.106;2024-01-30T03:42:46;4.00;;;2.38;;
73150;SDS011;61354;50.758;6.106;2024-01-30T03:45:30;4.63;;;2.38;;
73150;SDS011;61354;50.758;6.106;2024-01-30T03:48:14;4.97;;;2.50;;
73150;SDS011;61354;50.758;6.106;2024-01-30T03:50:58;4.63;;;3.00;;
73150;SDS011;61354;50.758;6.106;2024-01-30T03:53:43;3.90;;;2.30;;
73150;SDS011;61354;50.758;6.106;2024-01-30T03:56:27;5.75;;;2.63;;
73150;SDS011;61354;50.758;6.106;2024-01-30T03:59:11;5.85;;;2.67;;
73150;SDS011;61354;50.758;6.106;2024-01-30T04:01:55;5.30;;;2.78;;
73150;SDS011;61354;50.758;6.106;2024-01-30T04:04:39;4.90;;;2.70;;
73150;SDS011;61354;50.758;6.106;2024-01-30T04:07:23;5.30;;;2.33;;
73150;SDS011;61354;50.758;6.106;2024-01-30T04:10:07;5.63;;;2.50;;
73150;SDS011;61354;50.758;6.106;2024-01-30T04:12:51;5.88;;;2.78;;
73150;SDS011;61354;50.758;6.106;2024-01-30T04:15:35;4.35;;;2.50;;
73150;SDS011;61354;50.758;6.106;2024-01-30T04:18:19;5.65;;;2.50;;
73150;SDS011;61354;50.758;6.106;2024-01-30T04:21:03;6.00;;;2.90;;
73150;SDS011;61354;50.758;6.106;2024-01-30T04:23:47;5.45;;;2.67;;
73150;SDS011;61354;50.758;6.106;2024-01-30T04:26:31;5.60;;;2.65;;
73150;SDS011;61354;50.758;6.106;2024-01-30T04:29:15;4.65;;;2.60;;
73150;SDS011;61354;50.758;6.106;2024-01-30T04:31:59;4.93;;;2.80;;
73150;SDS011;61354;50.758;6.106;2024-01-30T04:34:43;5.20;;;2.80;;
73150;SDS011;61354;50.758;6.106;2024-01-30T04:37:27;4.72;;;2.50;;
73150;SDS011;61354;50.758;6.106;2024-01-30T04:40:11;5.30;;;3.10;;
73150;SDS011;61354;50.758;6.106;2024-01-30T04:42:56;4.40;;;2.42;;
73150;SDS011;61354;50.758;6.106;2024-01-30T04:45:40;4.03;;;2.50;;
73150;SDS011;61354;50.758;6.106;2024-01-30T04:48:24;4.50;;;2.30;;
73150;SDS011;61354;50.758;6.106;2024-01-30T04:51:08;4.88;;;2.65;;
73150;SDS011;61354;50.758;6.106;2024-01-30T04:53:52;6.63;;;3.00;;
73150;SDS011;61354;50.758;6.106;2024-01-30T04:56:36;5.30;;;2.40;;
73150;SDS011;61354;50.758;6.106;2024-01-30T04:59:20;5.03;;;2.53;;
73150;SDS011;61354;50.758;6.106;2024-01-30T05:02:04;3.92;;;2.42;;
73150;SDS011;61354;50.758;6.106;2024-01-30T05:04:48;4.82;;;2.83;;
73150;SDS011;61354;50.758;6.106;2024-01-30T05:07:32;6.43;;;2.92;;
73150;SDS011;61354;50.758;6.106;2024-01-30T05:10:16;5.35;;;2.30;;
73150;SDS011;61354;50.758;6.106;2024-01-30T05:13:00;4.88;;;2.42;;
73150;SDS011;61354;50.758;6.106;2024-01-30T05:15:44;5.32;;;2.38;;
73150;SDS011;61354;50.758;6.106;2024-01-30T05:18:28;6.35;;;2.85;;
73150;SDS011;61354;50.758;6.106;2024-01-30T05:21:12;6.43;;;2.65;;
73150;SDS011;61354;50.758;6.106;2024-01-30T05:23:56;4.50;;;2.63;;
73150;SDS011;61354;50.758;6.106;2024-01-30T05:26:39;4.22;;;2.33;;
73150;SDS011;61354;50.758;6.106;2024-01-30T05:29:23;5.72;;;2.85;;
73150;SDS011;61354;50.758;6.106;2024-01-30T05:32:08;5.45;;;2.60;;
73150;SDS011;61354;50.758;6.106;2024-01-30T05:34:52;4.22;;;2.67;;
73150;SDS011;61354;50.758;6.106;2024-01-30T05:37:36;4.53;;;2.22;;
73150;SDS011;61354;50.758;6.106;2024-01-30T05:40:20;5.95;;;3.03;;
73150;SDS011;61354;50.758;6.106;2024-01-30T05:43:04;4.75;;;2.90;;
73150;SDS011;61354;50.758;6.106;2024-01-30T05:45:48;7.68;;;3.90;;
73150;SDS011;61354;50.758;6.106;2024-01-30T05:48:31;4.75;;;2.75;;
73150;SDS011;61354;50.758;6.106;2024-01-30T05:51:15;6.07;;;2.97;;
73150;SDS011;61354;50.758;6.106;2024-01-30T05:53:59;4.25;;;2.50;;
73150;SDS011;61354;50.758;6.106;2024-01-30T05:56:43;6.28;;;2.55;;
73150;SDS011;61354;50.758;6.106;2024-01-30T05:59:27;4.65;;;2.60;;
73150;SDS011;61354;50.758;6.106;2024-01-30T06:02:11;5.35;;;2.88;;
73150;SDS011;61354;50.758;6.106;2024-01-30T06:04:55;20.60;;;3.15;;
73150;SDS011;61354;50.758;6.106;2024-01-30T06:07:39;6.40;;;2.75;;
73150;SDS011;61354;50.758;6.106;2024-01-30T06:10:23;5.13;;;2.60;;
73150;SDS011;61354;50.758;6.106;2024-01-30T06:13:07;4.43;;;2.58;;
73150;SDS011;61354;50.758;6.106;2024-01-30T06:15:51;6.07;;;2.80;;
73150;SDS011;61354;50.758;6.106;2024-01-30T06:18:35;7.18;;;3.25;;
73150;SDS011;61354;50.758;6.106;2024-01-30T06:21:18;6.60;;;2.85;;
73150;SDS011;61354;50.758;6.106;2024-01-30T06:24:02;6.00;;;2.90;;
73150;SDS011;61354;50.758;6.106;2024-01-30T06:26:47;4.95;;;2.80;;
73150;SDS011;61354;50.758;6.106;2024-01-30T06:29:31;5.97;;;2.90;;
73150;SDS011;61354;50.758;6.106;2024-01-30T06:32:15;6.55;;;3.03;;
73150;SDS011;61354;50.758;6.106;2024-01-30T06:34:59;5.18;;;2.50;;
73150;SDS011;61354;50.758;6.106;2024-01-30T06:37:47;5.90;;;3.35;;
73150;SDS011;61354;50.758;6.106;2024-01-30T06:40:37;5.80;;;2.70;;
73150;SDS011;61354;50.758;6.106;2024-01-30T06:43:21;6.00;;;2.95;;
73150;SDS011;61354;50.758;6.106;2024-01-30T06:46:06;5.88;;;2.85;;
73150;SDS011;61354;50.758;6.106;2024-01-30T06:48:50;5.85;;;3.00;;
73150;SDS011;61354;50.758;6.106;2024-01-30T06:51:34;6.47;;;3.47;;
73150;SDS011;61354;50.758;6.106;2024-01-30T06:54:18;5.45;;;2.83;;
73150;SDS011;61354;50.758;6.106;2024-01-30T06:57:02;6.60;;;3.40;;
73150;SDS011;61354;50.758;6.106;2024-01-30T06:59:46;5.43;;;3.10;;
73150;SDS011;61354;50.758;6.106;2024-01-30T07:02:36;6.32;;;2.85;;
73150;SDS011;61354;50.758;6.106;2024-01-30T07:09:38;6.78;;;3.20;;
73150;SDS011;61354;50.758;6.106;2024-01-30T07:12:23;5.00;;;2.75;;
73150;SDS011;61354;50.758;6.106;2024-01-30T07:17:52;5.88;;;3.08;;
73150;SDS011;61354;50.758;6.106;2024-01-30T07:20:36;5.53;;;2.92;;
73150;SDS011;61354;50.758;6.106;2024-01-30T07:23:20;4.97;;;3.00;;
73150;SDS011;61354;50.758;6.106;2024-01-30T07:26:05;6.10;;;3.03;;
73150;SDS011;61354;50.758;6.106;2024-01-30T07:28:50;5.70;;;3.10;;
73150;SDS011;61354;50.758;6.106;2024-01-30T07:31:34;6.72;;;3.25;;
73150;SDS011;61354;50.758;6.106;2024-01-30T07:34:18;6.65;;;2.95;;
73150;SDS011;61354;50.758;6.106;2024-01-30T07:37:02;6.43;;;3.25;;
73150;SDS011;61354;50.758;6.106;2024-01-30T07:39:47;5.32;;;3.10;;
73150;SDS011;61354;50.758;6.106;2024-01-30T07:42:31;6.38;;;3.42;;
73150;SDS011;61354;50.758;6.106;2024-01-30T07:45:15;6.13;;;2.97;;
73150;SDS011;61354;50.758;6.106;2024-01-30T07:47:59;7.57;;;3.50;;
73150;SDS011;61354;50.758;6.106;2024-01-30T07:50:44;4.80;;;2.90;;
73150;SDS011;61354;50.758;6.106;2024-01-30T07:53:28;6.40;;;3.17;;
73150;SDS011;61354;50.758;6.106;2024-01-30T07:56:12;8.80;;;3.67;;
73150;SDS011;61354;50.758;6.106;2024-01-30T07:58:56;6.03;;;3.42;;
73150;SDS011;61354;50.758;6.106;2024-01-30T08:01:40;6.50;;;3.30;;
73150;SDS011;61354;50.758;6.106;2024-01-30T08:04:31;6.28;;;3.17;;
73150;SDS011;61354;50.758;6.106;2024-01-30T08:07:24;5.50;;;3.10;;
73150;SDS011;61354;50.758;6.106;2024-01-30T08:10:08;7.05;;;3.50;;
73150;SDS011;61354;50.758;6.106;2024-01-30T08:16:38;6.80;;;3.50;;
73150;SDS011;61354;50.758;6.106;2024-01-30T08:19:37;6.47;;;3.55;;
73150;SDS011;61354;50.758;6.106;2024-01-30T08:26:39;6.35;;;3.75;;
73150;SDS011;61354;50.758;6.106;2024-01-30T08:29:23;6.72;;;3.28;;
73150;SDS011;61354;50.758;6.106;2024-01-30T08:32:13;5.00;;;2.78;;
73150;SDS011;61354;50.758;6.106;2024-01-30T08:38:22;6.25;;;3.10;;
73150;SDS011;61354;50.758;6.106;2024-01-30T08:41:07;7.45;;;3.65;;
73150;SDS011;61354;50.758;6.106;2024-01-30T08:43:52;7.55;;;3.00;;
73150;SDS011;61354;50.758;6.106;2024-01-30T08:46:35;6.93;;;3.50;;
73150;SDS011;61354;50.758;6.106;2024-01-30T08:49:19;6.03;;;3.28;;
73150;SDS011;61354;50.758;6.106;2024-01-30T08:52:04;6.10;;;3.13;;
73150;SDS011;61354;50.758;6.106;2024-01-30T08:54:49;8.02;;;3.00;;
73150;SDS011;61354;50.758;6.106;2024-01-30T08:57:33;5.30;;;2.85;;
73150;SDS011;61354;50.758;6.106;2024-01-30T09:00:17;6.00;;;3.03;;
73150;SDS011;61354;50.758;6.106;2024-01-30T09:03:01;4.78;;;3.00;;
73150;SDS011;61354;50.758;6.106;2024-01-30T09:05:45;5.70;;;2.90;;
73150;SDS011;61354;50.758;6.106;2024-01-30T09:08:29;5.78;;;3.30;;
73150;SDS011;61354;50.758;6.106;2024-01-30T09:11:13;7.53;;;4.22;;
73150;SDS011;61354;50.758;6.106;2024-01-30T09:13:58;5.65;;;2.90;;
73150;SDS011;61354;50.758;6.106;2024-01-30T09:16:42;7.07;;;3.53;;
73150;SDS011;61354;50.758;6.106;2024-01-30T09:19:26;5.72;;;3.22;;
73150;SDS011;61354;50.758;6.106;2024-01-30T09:22:10;5.90;;;3.38;;
73150;SDS011;61354;50.758;6.106;2024-01-30T09:24:54;7.70;;;3.30;;
73150;SDS011;61354;50.758;6.106;2024-01-30T09:27:38;6.63;;;3.40;;
73150;SDS011;61354;50.758;6.106;2024-01-30T09:30:21;7.43;;;3.35;;
73150;SDS011;61354;50.758;6.106;2024-01-30T09:33:06;6.30;;;2.92;;
73150;SDS011;61354;50.758;6.106;2024-01-30T09:35:50;6.43;;;2.85;;
73150;SDS011;61354;50.758;6.106;2024-01-30T09:38:34;5.72;;;3.13;;
73150;SDS011;61354;50.758;6.106;2024-01-30T09:41:18;6.43;;;3.08;;
73150;SDS011;61354;50.758;6.106;2024-01-30T09:44:03;5.82;;;3.13;;
73150;SDS011;61354;50.758;6.106;2024-01-30T09:46:49;6.68;;;3.10;;
73150;SDS011;61354;50.758;6.106;2024-01-30T09:49:34;7.35;;;3.10;;
73150;SDS011;61354;50.758;6.106;2024-01-30T09:52:19;6.93;;;3.00;;
73150;SDS011;61354;50.758;6.106;2024-01-30T09:55:04;6.35;;;3.03;;
73150;SDS011;61354;50.758;6.106;2024-01-30T10:00:33;4.90;;;2.28;;
73150;SDS011;61354;50.758;6.106;2024-01-30T10:06:24;6.03;;;3.35;;
73150;SDS011;61354;50.758;6.106;2024-01-30T10:12:55;8.57;;;3.17;;
73150;SDS011;61354;50.758;6.106;2024-01-30T10:15:39;8.35;;;3.72;;
73150;SDS011;61354;50.758;6.106;2024-01-30T10:18:40;6.10;;;3.40;;
73150;SDS011;61354;50.758;6.106;2024-01-30T10:21:37;6.93;;;3.72;;
73150;SDS011;61354;50.758;6.106;2024-01-30T10:28:01;5.10;;;2.83;;
73150;SDS011;61354;50.758;6.106;2024-01-30T10:31:38;6.80;;;3.13;;
73150;SDS011;61354;50.758;6.106;2024-01-30T10:41:40;6.55;;;2.88;;
73150;SDS011;61354;50.758;6.106;2024-01-30T10:44:37;11.20;;;3.03;;
73150;SDS011;61354;50.758;6.106;2024-01-30T10:51:09;9.10;;;3.50;;
73150;SDS011;61354;50.758;6.106;2024-01-30T10:56:39;7.22;;;3.63;;
73150;SDS011;61354;50.758;6.106;2024-01-30T10:59:24;6.32;;;2.92;;
73150;SDS011;61354;50.758;6.106;2024-01-30T11:02:08;5.20;;;3.00;;
73150;SDS011;61354;50.758;6.106;2024-01-30T11:04:58;6.18;;;3.35;;
73150;SDS011;61354;50.758;6.106;2024-01-30T11:07:43;7.28;;;3.63;;
73150;SDS011;61354;50.758;6.106;2024-01-30T11:10:27;7.03;;;3.55;;
73150;SDS011;61354;50.758;6.106;2024-01-30T11:13:13;7.80;;;3.72;;
73150;SDS011;61354;50.758;6.106;2024-01-30T11:16:01;7.10;;;3.50;;
73150;SDS011;61354;50.758;6.106;2024-01-30T11:18:49;5.22;;;3.00;;
73150;SDS011;61354;50.758;6.106;2024-01-30T11:24:27;7.65;;;4.05;;
73150;SDS011;61354;50.758;6.106;2024-01-30T11:27:11;6.85;;;3.15;;
73150;SDS011;61354;50.758;6.106;2024-01-30T11:30:00;6.95;;;4.18;;
73150;SDS011;61354;50.758;6.106;2024-01-30T11:32:45;7.97;;;3.50;;
73150;SDS011;61354;50.758;6.106;2024-01-30T11:35:29;5.75;;;3.00;;
73150;SDS011;61354;50.758;6.106;2024-01-30T11:38:17;6.55;;;2.90;;
73150;SDS011;61354;50.758;6.106;2024-01-30T11:41:01;8.27;;;2.97;;
73150;SDS011;61354;50.758;6.106;2024-01-30T11:43:53;7.72;;;3.45;;
73150;SDS011;61354;50.758;6.106;2024-01-30T11:46:37;6.85;;;3.00;;
73150;SDS011;61354;50.758;6.106;2024-01-30T11:49:21;5.22;;;2.88;;
73150;SDS011;61354;50.758;6.106;2024-01-30T11:52:05;7.88;;;3.42;;
73150;SDS011;61354;50.758;6.106;2024-01-30T11:54:50;8.77;;;3.58;;
73150;SDS011;61354;50.758;6.106;2024-01-30T11:57:34;6.85;;;3.75;;
73150;SDS011;61354;50.758;6.106;2024-01-30T12:00:21;5.95;;;3.42;;
73150;SDS011;61354;50.758;6.106;2024-01-30T12:03:06;6.90;;;3.28;;
73150;SDS011;61354;50.758;6.106;2024-01-30T12:05:57;7.28;;;3.55;;
73150;SDS011;61354;50.758;6.106;2024-01-30T12:08:55;7.97;;;3.42;;
73150;SDS011;61354;50.758;6.106;2024-01-30T12:11:43;10.45;;;3.17;;
73150;SDS011;61354;50.758;6.106;2024-01-30T12:14:28;7.78;;;3.47;;
73150;SDS011;61354;50.758;6.106;2024-01-30T12:17:22;8.10;;;4.03;;
73150;SDS011;61354;50.758;6.106;2024-01-30T12:20:17;5.45;;;3.03;;
73150;SDS011;61354;50.758;6.106;2024-01-30T12:23:01;6.60;;;3.58;;
73150;SDS011;61354;50.758;6.106;2024-01-30T12:25:46;8.63;;;3.70;;
73150;SDS011;61354;50.758;6.106;2024-01-30T12:28:30;7.47;;;3.65;;
73150;SDS011;61354;50.758;6.106;2024-01-30T12:31:14;6.75;;;3.97;;
73150;SDS011;61354;50.758;6.106;2024-01-30T12:33:59;8.63;;;3.92;;
73150;SDS011;61354;50.758;6.106;2024-01-30T12:36:43;8.88;;;3.67;;
73150;SDS011;61354;50.758;6.106;2024-01-30T12:39:27;6.50;;;3.58;;
73150;SDS011;61354;50.758;6.106;2024-01-30T12:42:11;7.65;;;3.28;;
73150;SDS011;61354;50.758;6.106;2024-01-30T12:44:58;9.52;;;4.57;;
73150;SDS011;61354;50.758;6.106;2024-01-30T12:47:43;8.73;;;3.60;;
73150;SDS011;61354;50.758;6.106;2024-01-30T12:50:27;6.53;;;3.75;;
73150;SDS011;61354;50.758;6.106;2024-01-30T12:53:10;6.22;;;3.17;;
73150;SDS011;61354;50.758;6.106;2024-01-30T12:58:40;7.53;;;3.15;;
73150;SDS011;61354;50.758;6.106;2024-01-30T13:01:26;7.97;;;3.60;;
73150;SDS011;61354;50.758;6.106;2024-01-30T13:04:10;10.13;;;4.13;;
73150;SDS011;61354;50.758;6.106;2024-01-30T13:06:54;7.45;;;3.30;;
73150;SDS011;61354;50.758;6.106;2024-01-30T13:09:39;7.18;;;3.92;;
73150;SDS011;61354;50.758;6.106;2024-01-30T13:12:23;8.68;;;4.32;;
73150;SDS011;61354;50.758;6.106;2024-01-30T13:15:07;6.57;;;3.50;;
73150;SDS011;61354;50.758;6.106;2024-01-30T13:20:26;9.85;;;4.22;;
73150;SDS011;61354;50.758;6.106;2024-01-30T13:23:10;8.55;;;3.63;;
73150;SDS011;61354;50.758;6.106;2024-01-30T13:25:54;7.20;;;3.80;;
73150;SDS011;61354;50.758;6.106;2024-01-30T13:28:42;6.90;;;3.33;;
73150;SDS011;61354;50.758;6.106;2024-01-30T13:31:26;9.25;;;4.45;;
73150;SDS011;61354;50.758;6.106;2024-01-30T13:34:11;6.75;;;3.63;;
73150;SDS011;61354;50.758;6.106;2024-01-30T13:36:55;6.82;;;3.22;;
73150;SDS011;61354;50.758;6.106;2024-01-30T13:39:40;8.45;;;3.67;;
73150;SDS011;61354;50.758;6.106;2024-01-30T13:42:24;7.35;;;4.28;;
73150;SDS011;61354;50.758;6.106;2024-01-30T13:45:08;7.32;;;3.58;;
73150;SDS011;61354;50.758;6.106;2024-01-30T13:47:53;8.15;;;4.60;;
73150;SDS011;61354;50.758;6.106;2024-01-30T13:50:37;5.88;;;3.55;;
73150;SDS011;61354;50.758;6.106;2024-01-30T13:53:21;8.95;;;4.10;;
73150;SDS011;61354;50.758;6.106;2024-01-30T13:56:05;9.70;;;4.13;;
73150;SDS011;61354;50.758;6.106;2024-01-30T13:58:50;7.25;;;3.67;;
73150;SDS011;61354;50.758;6.106;2024-01-30T14:01:34;11.93;;;4.85;;
73150;SDS011;61354;50.758;6.106;2024-01-30T14:04:17;8.07;;;4.00;;
73150;SDS011;61354;50.758;6.106;2024-01-30T14:07:02;6.97;;;4.35;;
73150;SDS011;61354;50.758;6.106;2024-01-30T14:09:45;10.63;;;4.35;;
73150;SDS011;61354;50.758;6.106;2024-01-30T14:12:29;7.13;;;3.80;;
73150;SDS011;61354;50.758;6.106;2024-01-30T14:15:14;8.50;;;4.40;;
73150;SDS011;61354;50.758;6.106;2024-01-30T14:17:59;12.50;;;4.97;;
73150;SDS011;61354;50.758;6.106;2024-01-30T14:20:42;7.53;;;3.88;;
73150;SDS011;61354;50.758;6.106;2024-01-30T14:23:26;7.88;;;4.07;;
73150;SDS011;61354;50.758;6.106;2024-01-30T14:29:22;9.07;;;3.47;;
73150;SDS011;61354;50.758;6.106;2024-01-30T14:32:12;7.68;;;4.22;;
73150;SDS011;61354;50.758;6.106;2024-01-30T14:34:56;8.02;;;4.18;;
73150;SDS011;61354;50.758;6.106;2024-01-30T14:41:20;9.02;;;4.20;;
73150;SDS011;61354;50.758;6.106;2024-01-30T14:44:04;10.52;;;5.03;;
73150;SDS011;61354;50.758;6.106;2024-01-30T14:46:49;7.47;;;4.47;;
73150;SDS011;61354;50.758;6.106;2024-01-30T14:49:39;10.65;;;4.40;;
73150;SDS011;61354;50.758;6.106;2024-01-30T14:59:44;10.45;;;4.18;;
73150;SDS011;61354;50.758;6.106;2024-01-30T15:02:37;8.70;;;3.92;;
73150;SDS011;61354;50.758;6.106;2024-01-30T15:05:37;6.68;;;3.22;;
73150;SDS011;61354;50.758;6.106;2024-01-30T15:08:36;8.98;;;3.42;;
73150;SDS011;61354;50.758;6.106;2024-01-30T15:11:20;9.52;;;3.88;;
73150;SDS011;61354;50.758;6.106;2024-01-30T15:17:29;7.32;;;2.90;;
73150;SDS011;61354;50.758;6.106;2024-01-30T15:20:13;5.45;;;2.55;;
73150;SDS011;61354;50.758;6.106;2024-01-30T15:22:57;5.00;;;2.22;;
73150;SDS011;61354;50.758;6.106;2024-01-30T15:25:41;6.10;;;3.00;;
73150;SDS011;61354;50.758;6.106;2024-01-30T15:28:38;6.05;;;2.90;;
73150;SDS011;61354;50.758;6.106;2024-01-30T15:31:22;5.15;;;2.25;;
73150;SDS011;61354;50.758;6.106;2024-01-30T15:34:06;5.07;;;2.38;;
73150;SDS011;61354;50.758;6.106;2024-01-30T15:40:30;7.15;;;2.50;;
73150;SDS011;61354;50.758;6.106;2024-01-30T15:43:14;4.60;;;1.95;;
73150;SDS011;61354;50.758;6.106;2024-01-30T15:45:59;4.78;;;2.28;;
73150;SDS011;61354;50.758;6.106;2024-01-30T15:48:44;5.30;;;2.15;;
73150;SDS011;61354;50.758;6.106;2024-01-30T15:51:28;5.90;;;2.67;;
73150;SDS011;61354;50.758;6.106;2024-01-30T15:54:12;4.43;;;1.92;;
73150;SDS011;61354;50.758;6.106;2024-01-30T15:56:56;4.63;;;2.30;;
73150;SDS011;61354;50.758;6.106;2024-01-30T15:59:42;4.22;;;1.88;;
73150;SDS011;61354;50.758;6.106;2024-01-30T16:02:38;5.07;;;2.45;;
73150;SDS011;61354;50.758;6.106;2024-01-30T16:05:22;4.85;;;2.10;;
73150;SDS011;61354;50.758;6.106;2024-01-30T16:08:06;4.68;;;1.77;;
73150;SDS011;61354;50.758;6.106;2024-01-30T16:10:50;5.13;;;2.15;;
73150;SDS011;61354;50.758;6.106;2024-01-30T16:13:34;4.28;;;1.90;;
73150;SDS011;61354;50.758;6.106;2024-01-30T16:16:23;2.58;;;1.30;;
73150;SDS011;61354;50.758;6.106;2024-01-30T16:19:08;3.95;;;1.63;;
73150;SDS011;61354;50.758;6.106;2024-01-30T16:21:52;4.35;;;2.10;;
73150;SDS011;61354;50.758;6.106;2024-01-30T16:24:36;3.78;;;1.63;;
73150;SDS011;61354;50.758;6.106;2024-01-30T16:27:22;3.88;;;1.40;;
73150;SDS011;61354;50.758;6.106;2024-01-30T16:30:07;5.53;;;1.77;;
73150;SDS011;61354;50.758;6.106;2024-01-30T16:32:52;4.50;;;1.83;;
73150;SDS011;61354;50.758;6.106;2024-01-30T16:35:37;5.78;;;1.70;;
73150;SDS011;61354;50.758;6.106;2024-01-30T16:42:02;3.33;;;1.60;;
73150;SDS011;61354;50.758;6.106;2024-01-30T16:44:46;2.95;;;1.35;;
73150;SDS011;61354;50.758;6.106;2024-01-30T16:47:30;3.08;;;1.73;;
73150;SDS011;61354;50.758;6.106;2024-01-30T16:50:20;3.67;;;1.40;;
73150;SDS011;61354;50.758;6.106;2024-01-30T16:53:04;2.92;;;1.20;;
73150;SDS011;61354;50.758;6.106;2024-01-30T16:55:48;3.70;;;1.30;;
73150;SDS011;61354;50.758;6.106;2024-01-30T16:58:32;2.17;;;1.13;;
73150;SDS011;61354;50.758;6.106;2024-01-30T17:01:16;2.83;;;1.33;;
73150;SDS011;61354;50.758;6.106;2024-01-30T17:04:00;4.00;;;1.50;;
73150;SDS011;61354;50.758;6.106;2024-01-30T17:06:44;1.88;;;0.93;;
73150;SDS011;61354;50.758;6.106;2024-01-30T17:09:28;3.65;;;1.50;;
73150;SDS011;61354;50.758;6.106;2024-01-30T17:12:12;2.42;;;1.30;;
73150;SDS011;61354;50.758;6.106;2024-01-30T17:14:56;3.13;;;1.30;;
73150;SDS011;61354;50.758;6.106;2024-01-30T17:17:40;2.85;;;1.38;;
73150;SDS011;61354;50.758;6.106;2024-01-30T17:20:24;2.42;;;1.23;;
73150;SDS011;61354;50.758;6.106;2024-01-30T17:23:08;2.58;;;1.20;;
73150;SDS011;61354;50.758;6.106;2024-01-30T17:25:53;1.90;;;1.20;;
73150;SDS011;61354;50.758;6.106;2024-01-30T17:28:37;3.08;;;1.40;;
73150;SDS011;61354;50.758;6.106;2024-01-30T17:31:21;2.58;;;1.10;;
73150;SDS011;61354;50.758;6.106;2024-01-30T17:34:05;1.98;;;1.05;;
73150;SDS011;61354;50.758;6.106;2024-01-30T17:36:49;3.10;;;1.40;;
73150;SDS011;61354;50.758;6.106;2024-01-30T17:39:34;3.80;;;1.23;;
73150;SDS011;61354;50.758;6.106;2024-01-30T17:42:18;5.82;;;1.27;;
73150;SDS011;61354;50.758;6.106;2024-01-30T17:45:05;2.20;;;1.00;;
73150;SDS011;61354;50.758;6.106;2024-01-30T17:47:49;4.47;;;1.65;;
73150;SDS011;61354;50.758;6.106;2024-01-30T17:50:33;3.25;;;1.52;;
73150;SDS011;61354;50.758;6.106;2024-01-30T17:53:17;3.13;;;1.15;;